Atherstone, United Kingdom
Current Conditions -  °F | °C
As of 8:20 PM on Monday 26 Jan 2015 (Local Time) from EGBB Reporting Station
Broken Clouds Broken Clouds  
Wind Chill: 37°   Ceiling: 4100
Heat Index: 43°   Visibility: 6mi
Dew Point: 36°   Wind: 10mph
Humidity: 76%   Direction: 300°WNW
Pressure: 30.33"   Gusts: NA
Location:  52.58°N, 1.55°W
Report Text: EGBB 262020Z 30009KT 9999 FEW027 BKN041 06/02 Q1027
Loading
Personal Weather Stations






























Interactive Weather Map New forecast layout! Learn more

10-Day Weather Forecast

Advertisements
Track Severe Weather on mobile